Time;durP1;ratioP1;P1;durP2;ratioP2;P2;SDS_P1;SDS_P2;PMS_P1;PMS_P2;Temp;Humidity;BMP_temperature;BMP_pressure;BME280_temperature;BME280_humidity;BME280_pressure;Samples;Min_cycle;Max_cycle;Signal;HPM_P1;HPM_P2
2022/11/15 00:00:31;;;;;;;30.25;17.88;;;;;;;4.21;100.00;99111.16;4888866;29;20485;-87
2022/11/15 00:03:36;;;;;;;29.70;17.42;;;;;;;4.22;100.00;99099.91;4865212;29;20092;-86
2022/11/15 00:06:39;;;;;;;31.95;16.95;;;;;;;4.21;100.00;99111.16;4889437;29;20503;-85
2022/11/15 00:09:46;;;;;;;33.15;17.65;;;;;;;4.15;100.00;99099.28;4876881;29;20610;-85
2022/11/15 00:12:49;;;;;;;32.08;18.15;;;;;;;4.17;100.00;99099.22;4890185;29;20140;-85
2022/11/15 00:15:57;;;;;;;34.53;19.35;;;;;;;4.10;100.00;99100.38;4877750;29;20056;-85
2022/11/15 00:19:00;;;;;;;36.35;19.52;;;;;;;4.09;100.00;99096.06;4882064;29;20071;-87
2022/11/15 00:22:03;;;;;;;35.25;19.70;;;;;;;4.05;100.00;99096.19;4878416;29;20040;-85
2022/11/15 00:25:07;;;;;;;33.72;19.13;;;;;;;4.07;100.00;99089.19;4888487;29;20125;-85
2022/11/15 00:28:12;;;;;;;31.50;18.45;;;;;;;4.15;100.00;99085.47;4892805;29;20553;-86
2022/11/15 00:31:17;;;;;;;34.10;19.10;;;;;;;4.04;100.00;99081.53;4887499;29;20044;-86
2022/11/15 00:34:20;;;;;;;32.25;18.98;;;;;;;3.94;100.00;99075.84;4878080;29;20053;-86
2022/11/15 00:37:24;;;;;;;33.67;18.52;;;;;;;3.93;100.00;99083.66;4888160;29;20067;-84
2022/11/15 00:40:27;;;;;;;33.20;18.40;;;;;;;4.04;100.00;99084.13;4898662;29;20052;-86
2022/11/15 00:43:31;;;;;;;30.90;17.10;;;;;;;4.05;100.00;99075.44;4880533;29;20404;-87
2022/11/15 00:46:35;;;;;;;33.13;19.50;;;;;;;4.07;100.00;99078.81;4885405;29;20052;-85
2022/11/15 00:49:42;;;;;;;31.60;18.73;;;;;;;4.23;100.00;99077.41;4893602;29;20557;-84
2022/11/15 00:52:49;;;;;;;28.15;16.48;;;;;;;4.23;100.00;99077.41;4902147;29;20080;-85
2022/11/15 00:55:55;;;;;;;30.50;17.27;;;;;;;4.27;100.00;99073.78;4894270;29;20477;-86
2022/11/15 00:59:02;;;;;;;32.25;17.60;;;;;;;4.20;100.00;99070.56;4890520;29;20108;-85
2022/11/15 01:02:05;;;;;;;28.00;17.15;;;;;;;4.27;100.00;99073.78;4893661;29;20072;-85
2022/11/15 01:05:09;;;;;;;30.80;18.15;;;;;;;4.32;100.00;99072.69;4897093;29;20477;-85
2022/11/15 01:08:14;;;;;;;29.98;18.65;;;;;;;4.31;100.00;99063.25;4914819;29;20060;-85
2022/11/15 01:11:18;;;;;;;33.15;19.42;;;;;;;4.26;100.00;99051.38;4918172;29;20052;-85
2022/11/15 01:14:24;;;;;;;34.50;19.70;;;;;;;4.18;100.00;99054.22;4925603;29;20071;-87
2022/11/15 01:17:30;;;;;;;34.55;19.23;;;;;;;4.13;100.00;99038.00;4891998;29;20044;-85
2022/11/15 01:20:33;;;;;;;35.55;20.00;;;;;;;4.19;100.00;99038.59;4894305;29;20052;-86
2022/11/15 01:23:40;;;;;;;36.72;20.55;;;;;;;4.11;100.00;99032.88;4884709;29;20044;-85
2022/11/15 01:26:59;;;;;;;34.17;19.30;;;;;;;4.24;100.00;99042.78;4877702;29;20151;-86
2022/11/15 01:30:03;;;;;;;31.35;18.38;;;;;;;4.29;100.00;99041.69;4881747;29;20049;-86
2022/11/15 01:33:07;;;;;;;35.15;19.52;;;;;;;4.28;100.00;99039.16;4901857;29;20049;-85
2022/11/15 01:36:24;;;;;;;34.83;19.20;;;;;;;4.24;100.00;99043.63;4881277;29;20136;-86
2022/11/15 01:39:27;;;;;;;31.70;19.10;;;;;;;4.41;100.00;99039.53;4890979;29;20166;-86
2022/11/15 01:42:30;;;;;;;28.70;17.23;;;;;;;4.56;100.00;99044.13;4890240;29;20370;-85
2022/11/15 01:45:34;;;;;;;34.90;18.95;;;;;;;4.51;100.00;99034.81;4894707;29;20453;-84
2022/11/15 01:48:39;;;;;;;33.53;19.48;;;;;;;4.47;100.00;99028.94;4903639;29;20445;-85
2022/11/15 01:51:44;;;;;;;35.92;19.58;;;;;;;4.31;100.00;99021.72;4894771;29;20424;-85
2022/11/15 01:54:50;;;;;;;33.88;19.38;;;;;;;4.31;100.00;99013.94;4892888;29;20056;-85
2022/11/15 01:57:59;;;;;;;32.15;20.00;;;;;;;4.31;100.00;99013.94;4889483;29;20505;-87
2022/11/15 02:01:03;;;;;;;33.13;19.20;;;;;;;4.34;100.00;99018.16;4891431;29;20119;-85
2022/11/15 02:04:25;;;;;;;35.63;20.85;;;;;;;4.29;100.00;99007.97;4887777;29;20132;-87
2022/11/15 02:07:32;;;;;;;36.22;18.95;;;;;;;4.41;100.00;99017.03;4889946;29;20063;-86
2022/11/15 02:10:36;;;;;;;31.98;18.55;;;;;;;4.52;100.00;99003.63;4891739;29;20502;-84
2022/11/15 02:13:39;;;;;;;34.20;19.35;;;;;;;4.56;100.00;99014.75;4901587;29;20047;-86
2022/11/15 02:16:57;;;;;;;36.40;20.63;;;;;;;4.49;100.00;99011.53;4878433;29;20075;-86
2022/11/15 02:20:07;;;;;;;37.72;21.60;;;;;;;4.56;100.00;99010.41;4891516;29;20036;-86
2022/11/15 02:23:14;;;;;;;34.88;20.02;;;;;;;4.64;100.00;99006.63;4890469;29;20128;-86
2022/11/15 02:26:39;;;;;;;36.58;21.15;;;;;;;4.53;100.00;99007.06;4891090;29;20124;-85
2022/11/15 02:29:56;;;;;;;36.90;21.42;;;;;;;4.48;100.00;99011.59;4892621;29;20076;-86
2022/11/15 02:33:20;;;;;;;39.35;21.20;;;;;;;4.52;100.00;99010.59;4904579;29;20386;-85
2022/11/15 02:36:39;;;;;;;32.75;19.83;;;;;;;4.57;100.00;99013.81;4880926;29;20099;-85
2022/11/15 02:39:43;;;;;;;32.42;17.88;;;;;;;4.66;100.00;99018.66;4887291;29;20056;-85
2022/11/15 02:47:12;;;;;;;35.47;19.75;;;;;;;4.81;100.00;99024.97;4894266;29;20060;-87
2022/11/15 02:49:56;;;;;;;36.58;19.50;;;;;;;4.67;100.00;99004.78;4888127;29;20071;-87
2022/11/15 02:53:01;;;;;;;36.10;20.80;;;;;;;4.63;100.00;99005.81;4892018;29;20084;-85
2022/11/15 02:56:10;;;;;;;33.80;19.60;;;;;;;4.54;100.00;98990.59;4878077;29;20040;-85
2022/11/15 02:59:55;;;;;;;35.72;20.33;;;;;;;4.54;100.00;98998.38;4899944;29;20069;-86
2022/11/15 03:03:20;;;;;;;33.72;20.48;;;;;;;4.57;100.00;98977.50;4893229;29;20100;-85
2022/11/15 03:06:29;;;;;;;38.03;21.60;;;;;;;4.58;100.00;98989.56;4888030;29;20054;-86
2022/11/15 03:09:50;;;;;;;38.35;21.20;;;;;;;4.56;100.00;98991.38;4885186;29;20064;-84
2022/11/15 03:13:21;;;;;;;39.47;21.70;;;;;;;4.58;100.00;98994.78;4888983;29;20033;-86
2022/11/15 03:16:39;;;;;;;38.78;21.58;;;;;;;4.68;100.00;98987.47;4883426;29;20072;-86
2022/11/15 03:19:46;;;;;;;36.83;21.23;;;;;;;4.70;100.00;98988.22;4863225;29;20082;-87
2022/11/15 03:22:53;;;;;;;39.90;21.88;;;;;;;4.61;100.00;98986.84;4878297;29;20060;-84
2022/11/15 03:26:00;;;;;;;39.40;22.13;;;;;;;4.59;100.00;98983.47;4873230;29;20236;-88
2022/11/15 03:29:20;;;;;;;42.33;21.45;;;;;;;4.66;100.00;98982.34;4852093;29;20064;-86
2022/11/15 03:32:28;;;;;;;36.55;20.60;;;;;;;4.74;100.00;98987.19;4879526;29;20064;-85
2022/11/15 03:35:44;;;;;;;36.75;20.17;;;;;;;4.73;100.00;98971.69;4876671;29;20169;-86
2022/11/15 03:38:48;;;;;;;44.22;24.45;;;;;;;4.67;100.00;98970.19;4882202;29;20068;-87
2022/11/15 03:42:23;;;;;;;44.35;23.55;;;;;;;4.50;100.00;98965.69;4856704;29;20041;-85
2022/11/15 03:45:39;;;;;;;48.30;25.05;;;;;;;4.50;100.00;98969.13;4876288;29;20057;-86
2022/11/15 03:48:49;;;;;;;43.13;24.85;;;;;;;4.56;100.00;98965.44;4865864;29;20124;-87
2022/11/15 03:51:55;;;;;;;53.45;28.30;;;;;;;4.54;100.00;98962.03;4881640;29;20168;-85
2022/11/15 03:55:02;;;;;;;48.95;26.58;;;;;;;4.62;100.00;98966.94;4854308;29;20097;-85
2022/11/15 03:58:06;;;;;;;56.72;27.98;;;;;;;4.58;100.00;98955.00;4841526;29;20065;-86
2022/11/15 04:01:10;;;;;;;53.10;27.95;;;;;;;4.55;100.00;98955.97;4841332;29;20045;-85
2022/11/15 04:04:13;;;;;;;46.88;25.58;;;;;;;4.55;100.00;98936.03;4847620;29;20264;-85
2022/11/15 04:07:17;;;;;;;49.50;26.60;;;;;;;4.48;100.00;98944.13;4856588;29;20112;-85
2022/11/15 04:10:21;;;;;;;49.47;26.42;;;;;;;4.49;100.00;98936.28;4845603;29;20053;-86
2022/11/15 04:13:25;;;;;;;45.53;26.27;;;;;;;4.53;100.00;98930.09;4846321;29;20118;-85
2022/11/15 04:16:28;;;;;;;51.22;26.67;;;;;;;4.54;100.00;98929.16;4845183;29;20060;-85
2022/11/15 04:26:21;;;;;;;45.20;24.00;;;;;;;4.72;100.00;98933.69;4877254;29;20143;-85
2022/11/15 04:29:35;;;;;;;47.53;26.98;;;;;;;4.75;100.00;98930.94;4887199;29;20119;-84
2022/11/15 04:32:39;;;;;;;51.92;27.35;;;;;;;4.77;100.00;98926.50;4890392;29;20124;-86
2022/11/15 04:35:43;;;;;;;45.38;25.10;;;;;;;4.91;100.00;98924.19;4877925;29;20495;-85
2022/11/15 04:38:46;;;;;;;51.40;28.17;;;;;;;4.96;100.00;98917.97;4873482;29;20072;-85
2022/11/15 04:41:50;;;;;;;45.50;24.73;;;;;;;4.95;100.00;98922.31;4877915;29;20044;-86
2022/11/15 04:44:54;;;;;;;41.28;23.67;;;;;;;4.95;100.00;98916.25;4877821;29;20509;-85
2022/11/15 04:47:57;;;;;;;38.38;23.60;;;;;;;5.01;100.00;98927.22;4889423;29;20059;-87
2022/11/15 04:51:04;;;;;;;40.30;22.55;;;;;;;4.98;100.00;98908.34;4891885;29;20140;-86
2022/11/15 04:54:08;;;;;;;50.45;27.48;;;;;;;4.81;100.00;98910.75;4879454;29;20056;-86
2022/11/15 04:57:12;;;;;;;56.92;29.83;;;;;;;4.74;100.00;98909.34;4881283;29;20043;-85
2022/11/15 05:00:17;;;;;;;58.75;28.88;;;;;;;4.72;100.00;98912.91;4888182;29;20068;-85
2022/11/15 05:06:49;;;;;;;69.00;34.60;;;;;;;4.82;100.00;98901.22;4886397;29;20653;-86
2022/11/15 05:09:52;;;;;;;65.47;32.80;;;;;;;4.76;100.00;98904.94;4898903;29;20044;-87
2022/11/15 05:12:59;;;;;;;57.83;30.23;;;;;;;4.73;100.00;98905.06;4888886;29;20044;-85
2022/11/15 05:16:03;;;;;;;54.10;29.20;;;;;;;4.69;100.00;98887.91;4889929;29;20061;-87
2022/11/15 05:19:08;;;;;;;45.92;26.42;;;;;;;4.62;100.00;98892.50;4893655;29;20045;-85
2022/11/15 05:22:34;;;;;;;;;;;;;;;;;;;;;
2022/11/15 05:25:40;;;;;;;39.70;22.55;;;;;;;4.47;100.00;98888.81;4906684;29;20048;-84
2022/11/15 05:28:46;;;;;;;39.60;23.98;;;;;;;4.42;100.00;98880.38;4913021;29;20045;-87
2022/11/15 05:31:51;;;;;;;36.03;22.13;;;;;;;4.58;100.00;98879.72;4894460;29;20044;-86
2022/11/15 05:34:56;;;;;;;41.88;24.33;;;;;;;4.44;100.00;98869.03;4879540;29;20049;-85
2022/11/15 05:37:59;;;;;;;44.88;24.00;;;;;;;4.43;100.00;98863.91;4891204;29;20386;-84
2022/11/15 05:41:04;;;;;;;49.47;25.13;;;;;;;4.54;100.00;98866.88;4879087;29;20672;-86
2022/11/15 05:44:12;;;;;;;46.63;26.80;;;;;;;4.58;100.00;98869.34;4891459;29;20093;-85
2022/11/15 05:47:23;;;;;;;44.88;26.17;;;;;;;4.55;100.00;98875.53;4892236;29;20127;-87
2022/11/15 05:50:27;;;;;;;43.20;24.08;;;;;;;4.62;100.00;98878.72;4888306;29;20065;-83
2022/11/15 05:53:31;;;;;;;41.15;23.45;;;;;;;4.53;100.00;98879.94;4880265;29;20119;-87
2022/11/15 05:56:35;;;;;;;45.65;25.08;;;;;;;4.62;100.00;98886.50;4904214;29;20037;-86
2022/11/15 05:59:40;;;;;;;41.00;24.73;;;;;;;4.50;100.00;98880.91;4881970;29;20079;-86
2022/11/15 06:02:44;;;;;;;49.72;28.42;;;;;;;4.46;100.00;98875.88;4888287;29;20761;-85
2022/11/15 06:05:47;;;;;;;45.55;24.60;;;;;;;4.40;100.00;98872.66;4879456;29;20077;-85
2022/11/15 06:08:50;;;;;;;37.47;21.40;;;;;;;4.75;100.00;98882.44;4890818;29;20040;-73
2022/11/15 06:11:54;;;;;;;42.17;24.55;;;;;;;5.62;100.00;98887.34;4880250;29;20079;-84
2022/11/15 06:14:57;;;;;;;42.47;24.48;;;;;;;5.06;100.00;98882.88;4885195;29;20105;-83
2022/11/15 06:18:02;;;;;;;37.83;23.05;;;;;;;4.91;100.00;98884.41;4891922;29;20129;-84
2022/11/15 06:21:06;;;;;;;44.22;24.25;;;;;;;4.81;100.00;98883.97;4895022;29;20484;-82
2022/11/15 06:24:09;;;;;;;40.67;23.42;;;;;;;4.83;100.00;98889.91;4891982;29;20072;-84
2022/11/15 06:27:12;;;;;;;43.33;25.20;;;;;;;4.98;100.00;98885.00;4878522;29;20085;-82
2022/11/15 06:30:15;;;;;;;39.28;22.55;;;;;;;4.91;100.00;98887.00;4894167;29;20390;-82
2022/11/15 06:33:20;;;;;;;40.97;23.85;;;;;;;4.85;100.00;98882.09;4905043;29;20055;-85
2022/11/15 06:36:23;;;;;;;38.80;22.58;;;;;;;4.87;100.00;98875.91;4892666;29;20297;-84
2022/11/15 06:39:26;;;;;;;36.78;22.45;;;;;;;4.85;100.00;98882.09;4884011;29;20396;-84
2022/11/15 06:42:32;;;;;;;44.38;24.50;;;;;;;4.81;100.00;98884.78;4891033;29;20124;-84
2022/11/15 06:45:35;;;;;;;37.35;22.80;;;;;;;4.77;100.00;98888.44;4878885;29;20408;-83
2022/11/15 06:48:39;;;;;;;40.67;22.65;;;;;;;4.77;100.00;98874.59;4885313;29;20056;-85
2022/11/15 06:51:41;;;;;;;40.28;22.60;;;;;;;4.90;100.00;98880.09;4896230;29;20045;-84
2022/11/15 06:54:45;;;;;;;39.20;22.73;;;;;;;4.89;100.00;98879.28;4900602;29;20095;-85
2022/11/15 06:57:50;;;;;;;35.08;21.73;;;;;;;4.81;100.00;98870.97;4890285;29;20048;-83
2022/11/15 07:00:54;;;;;;;39.38;23.00;;;;;;;4.86;100.00;98875.97;4880981;29;20077;-82
2022/11/15 07:03:57;;;;;;;37.38;21.17;;;;;;;4.86;100.00;98874.22;4892488;29;20053;-85
2022/11/15 07:07:00;;;;;;;32.10;19.70;;;;;;;4.79;100.00;98868.44;4886224;29;20101;-84
2022/11/15 07:10:06;;;;;;;33.88;19.42;;;;;;;4.88;100.00;98869.78;4891029;29;20055;-82
2022/11/15 07:13:10;;;;;;;35.70;21.70;;;;;;;4.88;100.00;98871.56;4896155;29;20047;-85
2022/11/15 07:16:13;;;;;;;34.40;19.88;;;;;;;4.87;100.00;98872.44;4892335;29;20059;-83
2022/11/15 07:19:16;;;;;;;32.33;18.30;;;;;;;4.97;100.00;98871.16;4883856;29;20111;-83
2022/11/15 07:22:22;;;;;;;34.60;20.13;;;;;;;5.03;100.00;98872.63;4880845;29;20044;-82
2022/11/15 07:25:29;;;;;;;34.50;20.17;;;;;;;4.95;100.00;98877.31;4894608;29;20053;-84
2022/11/15 07:28:33;;;;;;;38.30;19.45;;;;;;;5.03;100.00;98876.06;4870915;29;20509;-84
2022/11/15 07:31:37;;;;;;;31.33;19.17;;;;;;;4.97;100.00;98878.94;4892916;29;20749;-83
2022/11/15 07:34:41;;;;;;;33.67;18.98;;;;;;;5.13;100.00;98880.84;4892263;29;20083;-85
2022/11/15 07:37:44;;;;;;;30.77;19.02;;;;;;;5.04;100.00;98879.53;4888192;29;20037;-82
2022/11/15 07:40:55;;;;;;;31.77;18.33;;;;;;;5.11;100.00;98882.69;4892504;29;20060;-85
2022/11/15 07:43:58;;;;;;;30.17;18.80;;;;;;;5.21;100.00;98876.16;4900522;29;20686;-85
2022/11/15 07:47:02;;;;;;;32.90;20.77;;;;;;;5.09;100.00;98876.72;4903507;29;20048;-84
2022/11/15 07:50:05;;;;;;;32.17;19.30;;;;;;;5.09;100.00;98881.91;4892657;29;20072;-83
2022/11/15 07:53:10;;;;;;;31.45;20.15;;;;;;;5.17;100.00;98882.41;4887324;29;20421;-84
2022/11/15 07:56:13;;;;;;;32.63;19.65;;;;;;;5.17;100.00;98882.41;4888987;29;20079;-86
2022/11/15 07:59:16;;;;;;;30.23;18.88;;;;;;;5.20;100.00;98886.63;4886095;29;20814;-84
2022/11/15 08:02:20;;;;;;;32.47;19.45;;;;;;;5.35;100.00;98885.97;4892890;29;20143;-85
2022/11/15 08:05:23;;;;;;;31.98;19.48;;;;;;;5.22;100.00;98877.88;4889858;29;20186;-83
2022/11/15 08:08:26;;;;;;;36.97;20.13;;;;;;;4.99;100.00;98871.94;4883356;29;20036;-85
2022/11/15 08:11:29;;;;;;;31.20;18.80;;;;;;;5.05;100.00;98878.59;4882382;29;20041;-86
2022/11/15 08:14:35;;;;;;;30.27;18.52;;;;;;;5.16;100.00;98875.53;4888622;29;20405;-86
2022/11/15 08:17:38;;;;;;;30.33;19.23;;;;;;;5.07;100.00;98876.78;4890358;29;20370;-86
2022/11/15 08:20:43;;;;;;;30.58;17.63;;;;;;;5.34;100.00;98875.63;4891191;29;20072;-86
2022/11/15 08:23:46;;;;;;;31.30;18.08;;;;;;;5.23;100.00;98876.94;4888987;29;20048;-84
2022/11/15 08:26:50;;;;;;;34.30;19.90;;;;;;;5.21;100.00;98877.91;4891407;29;20040;-84
2022/11/15 08:29:53;;;;;;;31.33;17.45;;;;;;;5.27;100.00;98883.69;4892217;29;20508;-84
2022/11/15 08:32:58;;;;;;;30.48;18.15;;;;;;;5.33;100.00;98876.53;4878088;29;20469;-84
2022/11/15 08:36:01;;;;;;;31.60;18.55;;;;;;;5.49;100.00;98861.94;4887687;29;20729;-84
2022/11/15 08:39:05;;;;;;;35.05;18.90;;;;;;;5.44;100.00;98858.69;4907627;29;20041;-82
2022/11/15 08:42:09;;;;;;;35.83;20.38;;;;;;;5.62;100.00;98858.75;4895007;29;20051;-86
2022/11/15 08:45:13;;;;;;;34.90;19.92;;;;;;;5.71;100.00;98855.75;4890014;29;20120;-85
2022/11/15 08:48:16;;;;;;;33.40;19.80;;;;;;;5.64;100.00;98862.13;4910222;29;20044;-84
2022/11/15 08:51:20;;;;;;;33.35;20.75;;;;;;;5.54;100.00;98861.72;4876250;29;20128;-84
2022/11/15 08:54:23;;;;;;;41.00;22.10;;;;;;;5.64;100.00;98854.34;4886082;29;20060;-82
2022/11/15 08:57:30;;;;;;;37.10;20.42;;;;;;;5.73;100.00;98847.88;4898286;29;20516;-82
2022/11/15 09:00:33;;;;;;;35.63;21.25;;;;;;;5.72;100.00;98848.75;4890929;29;20044;-83
2022/11/15 09:03:39;;;;;;;38.63;21.58;;;;;;;5.66;100.00;98849.91;4890575;29;20060;-85
2022/11/15 09:06:43;;;;;;;35.35;20.15;;;;;;;5.99;100.00;98858.78;4891757;29;20044;-86
2022/11/15 09:09:46;;;;;;;35.90;20.55;;;;;;;6.07;100.00;98853.25;4890721;29;20051;-83
2022/11/15 09:12:49;;;;;;;31.58;19.05;;;;;;;6.09;100.00;98846.22;4884894;29;20108;-85
2022/11/15 09:15:57;;;;;;;36.58;20.42;;;;;;;6.15;100.00;98836.31;4891503;29;20136;-86
2022/11/15 09:19:00;;;;;;;35.22;20.52;;;;;;;6.38;100.00;98830.91;4893146;29;20049;-86
2022/11/15 09:22:06;;;;;;;35.00;20.58;;;;;;;6.39;100.00;98829.97;4876934;29;20083;-85
2022/11/15 09:25:09;;;;;;;35.00;20.48;;;;;;;6.27;100.00;98827.06;4881075;29;20044;-85
2022/11/15 09:28:12;;;;;;;37.58;19.90;;;;;;;6.65;100.00;98838.22;4880903;29;20088;-86
2022/11/15 09:31:16;;;;;;;34.72;19.80;;;;;;;6.58;100.00;98834.25;4885009;29;20076;-84
2022/11/15 09:34:20;;;;;;;36.50;20.30;;;;;;;6.63;100.00;98833.09;4860294;29;20516;-85
2022/11/15 09:37:23;;;;;;;36.10;20.65;;;;;;;6.28;100.00;98828.75;4904387;29;20049;-87
2022/11/15 09:40:27;;;;;;;34.58;19.63;;;;;;;6.60;100.00;98819.41;4883155;29;20083;-86
2022/11/15 09:43:37;;;;;;;35.20;21.25;;;;;;;6.48;100.00;98805.28;4916578;29;20029;-83
2022/11/15 09:47:29;;;;;;;35.13;20.63;;;;;;;6.71;100.00;98801.47;4917157;29;20063;-80
2022/11/15 09:50:47;;;;;;;33.08;19.50;;;;;;;6.67;100.00;98799.94;4899631;29;20076;-82
2022/11/15 09:53:46;;;;;;;38.25;19.95;;;;;;;6.59;100.00;98800.34;4897822;29;20483;-82
2022/11/15 09:56:35;;;;;;;35.55;20.92;;;;;;;6.78;100.00;98784.59;4883029;29;20098;-84
2022/11/15 09:59:39;;;;;;;33.67;19.33;;;;;;;6.88;100.00;98781.50;4881032;29;20080;-84
2022/11/15 10:02:42;;;;;;;33.88;19.63;;;;;;;7.27;100.00;98771.63;4893637;29;20128;-84
2022/11/15 10:05:29;;;;;;;32.47;18.50;;;;;;;7.65;100.00;98762.59;4876709;29;20059;-84
2022/11/15 10:08:28;;;;;;;34.35;20.88;;;;;;;7.85;100.00;98763.25;4864344;29;20056;-88
2022/11/15 10:11:20;;;;;;;34.13;19.42;;;;;;;8.14;100.00;98748.47;4886149;29;20080;-83
2022/11/15 10:14:11;;;;;;;36.40;19.58;;;;;;;8.12;100.00;98745.16;4879992;29;20057;-84
2022/11/15 10:17:08;;;;;;;35.88;20.35;;;;;;;7.62;100.00;98755.78;4872461;29;20045;-87
2022/11/15 10:20:01;;;;;;;36.25;20.95;;;;;;;7.26;100.00;98754.31;4867430;29;20449;-86
2022/11/15 10:23:10;;;;;;;38.05;22.13;;;;;;;7.09;100.00;98745.66;4877524;29;20051;-83
2022/11/15 10:25:57;;;;;;;37.88;21.90;;;;;;;7.34;100.00;98740.84;4869616;29;20052;-85
2022/11/15 10:28:42;;;;;;;39.80;20.73;;;;;;;7.86;100.00;98742.28;4877025;29;20484;-86
2022/11/15 10:31:30;;;;;;;39.00;23.45;;;;;;;7.38;100.00;98753.63;4875749;29;20056;-87
2022/11/15 10:34:19;;;;;;;38.45;21.40;;;;;;;7.08;100.00;98740.53;4880141;29;20681;-84
2022/11/15 10:37:04;;;;;;;37.55;20.90;;;;;;;7.65;100.00;98731.31;4873975;29;20053;-85
2022/11/15 10:40:14;;;;;;;37.50;21.08;;;;;;;7.33;100.00;98742.63;4865428;29;20036;-84
2022/11/15 10:43:13;;;;;;;42.63;23.60;;;;;;;7.09;100.00;98731.78;4874316;29;20434;-86
2022/11/15 10:46:25;;;;;;;37.15;20.67;;;;;;;7.32;100.00;98722.69;4875976;29;20449;-85
2022/11/15 10:49:24;;;;;;;35.08;21.10;;;;;;;7.48;100.00;98724.44;4867862;29;20157;-85
2022/11/15 10:52:11;;;;;;;38.97;21.80;;;;;;;7.39;100.00;98723.19;4874275;29;20037;-85
2022/11/15 10:54:59;;;;;;;43.47;23.42;;;;;;;7.25;100.00;98703.09;4866541;29;20088;-86
2022/11/15 10:57:52;;;;;;;37.20;22.65;;;;;;;7.06;100.00;98711.09;4881598;29;20041;-85
2022/11/15 11:00:41;;;;;;;41.28;23.73;;;;;;;7.26;100.00;98700.41;4865948;29;20075;-86
2022/11/15 11:03:35;;;;;;;45.72;25.02;;;;;;;7.33;100.00;98705.31;4877426;29;20045;-83
2022/11/15 11:06:19;;;;;;;38.45;22.65;;;;;;;7.16;100.00;98712.28;4878817;29;20048;-87
2022/11/15 11:09:05;;;;;;;42.63;23.90;;;;;;;7.34;100.00;98704.38;4888777;29;20052;-85
2022/11/15 11:11:51;;;;;;;40.13;23.52;;;;;;;7.34;100.00;98693.94;4877322;29;20492;-85
2022/11/15 11:14:39;;;;;;;45.42;25.50;;;;;;;7.15;100.00;98684.53;4891715;29;20132;-86
2022/11/15 11:17:34;;;;;;;47.92;26.08;;;;;;;6.98;100.00;98688.09;4888003;29;20155;-85
2022/11/15 11:20:30;;;;;;;48.00;26.02;;;;;;;6.86;100.00;98677.41;4888662;29;20052;-86
2022/11/15 11:23:41;;;;;;;42.72;25.17;;;;;;;7.11;100.00;98673.47;4875595;29;20049;-86
2022/11/15 11:26:41;;;;;;;48.75;26.02;;;;;;;7.24;100.00;98677.97;4877976;29;20048;-84
2022/11/15 11:29:49;;;;;;;42.50;25.10;;;;;;;7.15;100.00;98674.13;4901891;29;21973;-85
2022/11/15 11:32:51;;;;;;;45.97;26.40;;;;;;;7.09;100.00;98664.91;4879427;29;20082;-86
2022/11/15 11:35:44;;;;;;;44.67;25.48;;;;;;;7.31;100.00;98665.47;4861050;29;20143;-91
2022/11/15 11:38:48;;;;;;;47.38;26.00;;;;;;;7.22;100.00;98662.44;4845903;29;20053;-85
2022/11/15 11:42:03;;;;;;;48.65;25.92;;;;;;;7.02;100.00;98655.72;4829759;29;20053;-85
2022/11/15 11:45:05;;;;;;;45.83;25.67;;;;;;;6.94;100.00;98648.34;4841059;29;20101;-85
2022/11/15 11:48:07;;;;;;;41.78;23.58;;;;;;;6.65;100.00;98651.63;4847592;29;20064;-87
2022/11/15 11:50:56;;;;;;;41.08;22.95;;;;;;;6.96;100.00;98654.31;4846809;29;20052;-85
2022/11/15 11:53:46;;;;;;;42.92;23.70;;;;;;;6.96;100.00;98646.50;4857476;29;20053;-86
2022/11/15 11:56:37;;;;;;;39.72;22.67;;;;;;;6.78;100.00;98641.38;4833019;29;20049;-87
2022/11/15 11:59:36;;;;;;;43.42;23.52;;;;;;;6.88;100.00;98633.91;4860167;29;20073;-85
2022/11/15 12:02:40;;;;;;;40.63;23.00;;;;;;;6.73;100.00;98629.53;4846233;29;20049;-81
2022/11/15 12:05:37;;;;;;;42.40;24.05;;;;;;;6.57;100.00;98626.94;4858240;29;20076;-86
2022/11/15 12:08:50;;;;;;;43.97;24.10;;;;;;;6.55;100.00;98631.38;4865699;29;20098;-85
2022/11/15 12:11:44;;;;;;;;;;;;;;;6.63;100.00;98629.19;4860588;29;20112;-85
2022/11/15 12:14:35;;;;;;;45.38;24.42;;;;;;;6.59;100.00;98617.28;4890639;29;19959;-85
2022/11/15 12:17:24;;;;;;;44.38;23.42;;;;;;;6.51;100.00;98613.31;4873418;29;20040;-86
2022/11/15 12:20:34;;;;;;;47.97;25.67;;;;;;;6.58;100.00;98605.16;4877929;29;20397;-85
2022/11/15 12:23:28;;;;;;;45.92;26.00;;;;;;;6.55;100.00;98597.53;4865238;29;20071;-80
2022/11/15 12:26:53;;;;;;;41.13;23.08;;;;;;;6.58;100.00;98585.19;4894620;29;20045;-86
2022/11/15 12:29:43;;;;;;;44.53;24.02;;;;;;;6.53;100.00;98584.59;4880441;29;20073;-81
2022/11/15 12:32:37;;;;;;;48.85;26.48;;;;;;;6.61;100.00;98573.78;4886536;29;20045;-84
2022/11/15 12:35:42;;;;;;;48.25;25.67;;;;;;;6.64;100.00;98569.22;4892670;29;20511;-87
2022/11/15 12:39:08;;;;;;;50.72;26.73;;;;;;;6.49;100.00;98563.13;4868911;29;20048;-84
2022/11/15 12:42:02;;;;;;;53.28;26.85;;;;;;;6.45;100.00;98566.81;4786251;29;20201;-88
2022/11/15 12:44:47;;;;;;;54.15;27.63;;;;;;;6.34;100.00;98564.78;4777754;29;20141;-85
2022/11/15 12:47:34;;;;;;;46.92;26.08;;;;;;;6.48;100.00;98558.81;4775572;29;20070;-83
2022/11/15 12:50:53;;;;;;;46.78;26.88;;;;;;;6.49;100.00;98554.47;4794505;29;20062;-84
2022/11/15 12:53:39;;;;;;;47.42;25.85;;;;;;;6.43;100.00;98554.81;4788684;29;20051;-84
2022/11/15 12:56:25;;;;;;;46.90;25.45;;;;;;;6.57;100.00;98548.84;4798233;29;20070;-84
2022/11/15 12:59:58;;;;;;;48.03;27.30;;;;;;;6.59;100.00;98542.63;4817463;29;20076;-84
2022/11/15 13:03:18;;;;;;;50.10;26.55;;;;;;;6.63;100.00;98538.94;4774074;29;20055;-85
2022/11/15 13:06:05;;;;;;;48.65;26.27;;;;;;;6.55;100.00;98535.91;4805810;29;20115;-85
2022/11/15 13:08:51;;;;;;;53.67;27.08;;;;;;;6.41;100.00;98534.91;4778399;29;20081;-83
2022/11/15 13:11:52;;;;;;;49.53;27.67;;;;;;;6.47;100.00;98533.75;4788193;29;20371;-87
2022/11/15 13:14:36;;;;;;;56.38;29.02;;;;;;;6.45;100.00;98522.56;4789013;29;20079;-87
2022/11/15 13:17:21;;;;;;;58.72;29.15;;;;;;;6.41;100.00;98518.47;4824591;29;20056;-84
2022/11/15 13:20:06;;;;;;;59.25;30.48;;;;;;;6.38;100.00;98526.44;4863357;29;20052;-86
2022/11/15 13:25:57;;;;;;;59.67;30.67;;;;;;;6.33;100.00;98513.69;4878709;29;20037;-85
2022/11/15 13:28:49;;;;;;;55.95;28.88;;;;;;;6.23;100.00;98518.56;4876371;29;20040;-84
2022/11/15 13:31:42;;;;;;;53.83;30.13;;;;;;;6.22;100.00;98509.06;4861064;29;20040;-84
2022/11/15 13:34:36;;;;;;;53.00;27.70;;;;;;;6.30;100.00;98510.41;4877813;29;20096;-85
2022/11/15 13:37:21;;;;;;;51.60;26.98;;;;;;;6.36;100.00;98507.47;4864816;29;20041;-85
2022/11/15 13:40:30;;;;;;;49.67;27.08;;;;;;;6.32;100.00;98506.78;4878171;29;20040;-85
2022/11/15 13:43:22;;;;;;;59.97;28.85;;;;;;;6.35;100.00;98506.63;4875240;29;20071;-80
2022/11/15 13:46:25;;;;;;;60.97;28.45;;;;;;;6.40;100.00;98494.19;4873720;29;20092;-84
2022/11/15 13:49:12;;;;;;;60.22;31.45;;;;;;;6.31;100.00;98489.50;4878254;29;20528;-85
2022/11/15 13:51:57;;;;;;;55.28;29.85;;;;;;;6.31;100.00;98479.09;4861775;29;20056;-83
2022/11/15 13:54:47;;;;;;;58.90;30.10;;;;;;;6.41;100.00;98471.63;4875335;29;20054;-83
2022/11/15 13:57:50;;;;;;;59.05;30.83;;;;;;;6.38;100.00;98471.81;4862062;29;20610;-86
2022/11/15 14:00:35;;;;;;;56.45;28.70;;;;;;;6.45;100.00;98461.84;4860545;29;20378;-85
2022/11/15 14:03:40;;;;;;;59.72;30.50;;;;;;;6.41;100.00;98459.44;4899821;29;20056;-83
2022/11/15 14:06:29;;;;;;;59.70;29.40;;;;;;;6.41;100.00;98446.41;4911882;29;20048;-80
2022/11/15 14:09:28;;;;;;;60.78;30.52;;;;;;;6.36;100.00;98443.25;4899296;29;20108;-83
2022/11/15 14:12:33;;;;;;;67.07;31.85;;;;;;;6.47;100.00;98444.41;4896308;29;20044;-82
2022/11/15 14:15:30;;;;;;;66.72;31.20;;;;;;;6.43;100.00;98433.31;4887623;29;20127;-83
2022/11/15 14:18:46;;;;;;;57.97;30.33;;;;;;;6.48;100.00;98439.09;4876805;29;20277;-83
2022/11/15 14:21:32;;;;;;;59.67;29.70;;;;;;;6.35;100.00;98432.94;4891205;29;20557;-85